Time;durP1;ratioP1;P1;durP2;ratioP2;P2;SDS_P1;SDS_P2;PMS_P1;PMS_P2;Temp;Humidity;BMP_temperature;BMP_pressure;BME280_temperature;BME280_humidity;BME280_pressure;Samples;Min_cycle;Max_cycle;Signal;HPM_P1;HPM_P2
2022/09/09 00:00:29;;;;;;;1.40;1.30;;;14.00;99.90;13.40;100215;;;;575725;246;24104;-87
2022/09/09 00:03:03;;;;;;;1.50;1.40;;;14.00;99.90;13.40;100202;;;;582018;246;24108;-86
2022/09/09 00:05:52;;;;;;;3.47;1.43;;;14.00;99.90;13.40;100206;;;;581199;242;24101;-86
2022/09/09 00:08:20;;;;;;;1.97;1.43;;;14.00;99.90;13.40;100198;;;;570377;246;24107;-87
2022/09/09 00:10:48;;;;;;;2.73;1.33;;;13.90;99.90;13.40;100206;;;;573537;246;24084;-87
2022/09/09 00:13:40;;;;;;;1.00;1.00;;;13.90;99.90;13.40;100212;;;;581668;246;24098;-86
2022/09/09 00:16:22;;;;;;;2.27;1.40;;;14.00;99.90;13.40;100196;;;;573406;246;24092;-86
2022/09/09 00:19:06;;;;;;;10.80;1.23;;;13.90;99.90;13.30;100196;;;;582077;244;24092;-86
2022/09/09 00:21:36;;;;;;;1.23;1.10;;;13.90;99.90;13.30;100195;;;;573026;246;24087;-86
2022/09/09 00:24:20;;;;;;;2.10;1.50;;;13.90;99.90;13.40;100200;;;;574488;246;24090;-87
2022/09/09 00:26:51;;;;;;;1.47;1.13;;;13.90;99.90;13.40;100195;;;;582754;246;24095;-86
2022/09/09 00:29:46;;;;;;;3.00;1.73;;;13.90;99.90;13.40;100192;;;;577954;246;35241;-86
2022/09/09 00:32:17;;;;;;;1.50;1.40;;;13.90;99.90;13.30;100195;;;;575022;246;24084;-86
2022/09/09 00:34:53;;;;;;;1.50;1.40;;;13.90;99.90;13.30;100197;;;;573668;246;24152;-86
2022/09/09 00:37:22;;;;;;;1.40;1.30;;;13.90;99.90;13.30;100188;;;;573402;246;24147;-86
2022/09/09 00:39:51;;;;;;;1.50;1.43;;;13.90;99.90;13.40;100182;;;;572413;246;24129;-86
2022/09/09 00:42:32;;;;;;;1.63;1.13;;;13.90;99.90;13.40;100181;;;;573616;246;24092;-86
2022/09/09 00:45:03;;;;;;;1.90;1.03;;;13.90;99.90;13.40;100178;;;;573016;246;24115;-86
2022/09/09 00:47:55;;;;;;;1.40;1.30;;;13.90;99.90;13.30;100177;;;;582051;246;24093;-86
2022/09/09 00:50:40;;;;;;;0.83;0.83;;;13.90;99.90;13.30;100178;;;;573570;246;24107;-88
2022/09/09 00:53:18;;;;;;;1.57;1.30;;;13.90;99.90;13.30;100176;;;;573791;246;24078;-87
2022/09/09 00:55:48;;;;;;;4.23;1.30;;;13.90;99.90;13.40;100188;;;;573779;246;25123;-85
2022/09/09 00:58:16;;;;;;;7.87;1.80;;;13.90;99.90;13.40;100178;;;;574041;246;24120;-87
2022/09/09 01:01:03;;;;;;;2.53;1.60;;;14.00;99.90;13.50;100179;;;;573909;246;24100;-85
2022/09/09 01:03:36;;;;;;;1.43;1.33;;;14.00;99.90;13.50;100172;;;;571646;246;24132;-87
2022/09/09 01:06:36;;;;;;;3.17;1.40;;;14.00;99.90;13.60;100167;;;;574662;245;24139;-87
2022/09/09 01:09:25;;;;;;;4.00;1.83;;;14.10;99.90;13.60;100177;;;;573653;246;24095;-86
2022/09/09 01:12:02;;;;;;;2.47;1.53;;;14.10;99.90;13.60;100166;;;;571768;246;24096;-87
2022/09/09 01:14:36;;;;;;;3.10;1.60;;;14.10;99.90;13.60;100176;;;;573465;246;24072;-87
2022/09/09 01:17:14;;;;;;;1.50;1.40;;;14.20;99.90;13.60;100180;;;;573642;246;24100;-87
2022/09/09 01:19:43;;;;;;;2.43;1.60;;;14.20;99.90;13.60;100177;;;;582734;246;24189;-88
2022/09/09 01:22:50;;;;;;;1.90;1.67;;;14.10;99.90;13.60;100164;;;;573610;246;24079;-86
2022/09/09 01:25:44;;;;;;;3.57;1.70;;;14.20;99.90;13.60;100173;;;;573456;245;24095;-88
2022/09/09 01:28:12;;;;;;;2.07;1.87;;;14.10;99.90;13.60;100176;;;;573669;246;24088;-87
2022/09/09 01:30:40;;;;;;;3.13;1.80;;;14.20;99.90;13.60;100173;;;;582113;246;24147;-87
2022/09/09 01:33:10;;;;;;;2.97;1.87;;;14.20;99.90;13.60;100176;;;;581909;243;24130;-86
2022/09/09 01:35:57;;;;;;;1.57;1.47;;;14.10;99.90;13.60;100177;;;;582255;245;24085;-87
2022/09/09 01:38:24;;;;;;;1.63;1.53;;;14.10;99.90;13.60;100178;;;;576994;246;24098;-86
2022/09/09 01:40:52;;;;;;;8.00;1.50;;;14.10;99.90;13.50;100177;;;;573534;246;24120;-86
2022/09/09 01:43:17;;;;;;;3.50;1.27;;;14.10;99.90;13.60;100179;;;;576145;246;24124;-85
2022/09/09 01:45:45;;;;;;;3.97;1.47;;;14.10;99.90;13.50;100183;;;;573771;246;24081;-86
2022/09/09 01:48:13;;;;;;;2.77;1.37;;;14.10;99.90;13.50;100181;;;;573742;246;24096;-86
2022/09/09 01:50:43;;;;;;;1.23;1.13;;;14.10;99.90;13.50;100185;;;;574327;246;24077;-86
2022/09/09 01:53:09;;;;;;;4.73;1.43;;;14.10;99.90;13.50;100181;;;;579314;246;24187;-86
2022/09/09 01:55:39;;;;;;;2.80;1.50;;;14.10;99.90;13.50;100187;;;;573807;246;24089;-87
2022/09/09 01:58:10;;;;;;;1.83;1.20;;;14.10;99.90;13.50;100176;;;;582673;246;24135;-85
2022/09/09 02:00:38;;;;;;;2.33;1.50;;;14.10;99.90;13.60;100172;;;;574033;246;24074;-86
2022/09/09 02:03:25;;;;;;;1.47;1.37;;;14.10;99.90;13.60;100173;;;;582398;246;24124;-85
2022/09/09 02:05:55;;;;;;;1.43;1.17;;;14.20;99.90;13.60;100174;;;;571867;246;24135;-87
2022/09/09 02:08:45;;;;;;;4.97;2.13;;;14.20;99.90;13.60;100176;;;;582116;246;24074;-85
2022/09/09 02:11:12;;;;;;;2.57;1.30;;;14.10;99.90;13.60;100178;;;;573806;246;24093;-86
2022/09/09 02:13:41;;;;;;;9.17;1.47;;;14.20;99.90;13.60;100169;;;;582911;246;24144;-86
2022/09/09 02:16:12;;;;;;;2.00;1.80;;;14.10;99.90;13.60;100175;;;;573778;246;24085;-86
2022/09/09 02:18:52;;;;;;;2.30;1.53;;;14.10;99.90;13.50;100173;;;;582970;246;24155;-87
2022/09/09 02:21:23;;;;;;;1.30;1.20;;;14.10;99.90;13.60;100172;;;;573520;246;24096;-87
2022/09/09 02:23:51;;;;;;;1.70;1.30;;;14.10;99.90;13.60;100175;;;;573336;246;24116;-86
2022/09/09 02:26:20;;;;;;;3.30;1.27;;;14.10;99.90;13.60;100170;;;;573366;246;24106;-86
2022/09/09 02:28:47;;;;;;;1.57;1.40;;;14.10;99.90;13.50;100163;;;;571268;246;24111;-87
2022/09/09 02:31:11;;;;;;;1.37;1.20;;;14.10;99.90;13.60;100165;;;;573642;246;24133;-86
2022/09/09 02:33:39;;;;;;;6.27;1.20;;;14.20;99.90;13.60;100172;;;;573926;246;24144;-87
2022/09/09 02:36:11;;;;;;;1.37;1.20;;;14.10;99.90;13.60;100172;;;;582265;246;24152;-86
2022/09/09 02:38:35;;;;;;;3.77;1.40;;;14.20;99.90;13.60;100166;;;;573330;246;24108;-86
2022/09/09 02:41:03;;;;;;;2.20;1.20;;;14.10;99.90;13.50;100172;;;;582343;246;24132;-86
2022/09/09 02:43:38;;;;;;;3.50;1.30;;;14.10;99.90;13.50;100162;;;;573699;246;24095;-86
2022/09/09 02:46:08;;;;;;;1.83;1.40;;;14.10;99.90;13.40;100173;;;;573059;244;24090;-86
2022/09/09 02:48:49;;;;;;;1.20;1.20;;;14.00;99.90;13.40;100165;;;;581490;242;24120;-86
2022/09/09 02:51:31;;;;;;;1.60;1.50;;;14.00;99.90;13.40;100172;;;;573660;246;24106;-87
2022/09/09 02:54:26;;;;;;;3.53;1.73;;;14.00;99.90;13.30;100167;;;;574529;246;24095;-87
2022/09/09 02:56:57;;;;;;;1.70;1.23;;;13.90;99.90;13.20;100168;;;;574243;246;24104;-87
2022/09/09 02:59:21;;;;;;;4.77;1.87;;;13.70;99.90;13.00;100166;;;;573742;246;24084;-86
2022/09/09 03:01:49;;;;;;;1.27;1.13;;;13.60;99.90;12.90;100176;;;;574153;246;24110;-86
2022/09/09 03:04:17;;;;;;;1.30;1.20;;;13.40;99.90;12.90;100172;;;;574074;246;24066;-86
2022/09/09 03:06:48;;;;;;;1.70;1.43;;;13.40;99.90;12.90;100170;;;;573831;246;24078;-86
2022/09/09 03:09:14;;;;;;;2.30;1.43;;;13.50;99.90;12.90;100194;;;;571611;246;24146;-87
2022/09/09 03:11:42;;;;;;;2.33;1.50;;;13.50;99.90;12.80;100179;;;;573817;246;24112;-87
2022/09/09 03:14:11;;;;;;;4.70;1.83;;;13.40;99.90;12.40;100187;;;;574069;246;24096;-87
2022/09/09 03:16:38;;;;;;;5.80;1.87;;;13.10;99.90;11.90;100193;;;;574030;246;24110;-86
2022/09/09 03:19:06;;;;;;;4.50;1.37;;;12.70;99.90;11.70;100201;;;;573936;246;24104;-87
2022/09/09 03:21:33;;;;;;;1.60;1.50;;;12.30;99.90;11.40;100198;;;;574004;246;24084;-87
2022/09/09 03:24:05;;;;;;;3.23;1.30;;;12.00;99.90;11.20;100203;;;;573598;246;24090;-87
2022/09/09 03:26:32;;;;;;;4.00;2.33;;;11.80;99.90;11.10;100205;;;;579648;246;24147;-87
2022/09/09 03:28:58;;;;;;;5.83;1.97;;;11.70;99.90;11.00;100218;;;;582095;245;24089;-88
2022/09/09 03:31:25;;;;;;;2.97;2.00;;;11.60;99.90;10.90;100214;;;;573777;246;24132;-87
2022/09/09 03:33:53;;;;;;;2.80;1.90;;;11.50;99.90;10.90;100219;;;;573827;246;24111;-87
2022/09/09 03:36:21;;;;;;;8.57;4.23;;;11.50;99.90;10.80;100227;;;;568758;246;35291;-85
2022/09/09 03:38:50;;;;;;;17.87;3.93;;;11.50;99.90;10.80;100227;;;;573444;246;24105;-84
2022/09/09 03:41:18;;;;;;;5.77;3.30;;;11.40;99.90;10.80;100230;;;;573338;246;24083;-83
2022/09/09 03:43:45;;;;;;;11.37;3.17;;;11.40;99.90;10.70;100240;;;;573469;246;24088;-84
2022/09/09 03:46:14;;;;;;;5.67;2.73;;;11.30;99.90;10.70;100240;;;;573395;246;24068;-83
2022/09/09 03:48:44;;;;;;;6.63;2.80;;;11.30;99.90;10.70;100230;;;;575390;246;24096;-83
2022/09/09 03:51:11;;;;;;;5.90;2.90;;;11.30;99.90;10.70;100233;;;;573173;246;24087;-83
2022/09/09 03:53:39;;;;;;;8.30;3.03;;;11.30;99.90;10.70;100228;;;;573406;246;24124;-81
2022/09/09 03:56:07;;;;;;;4.70;3.20;;;11.30;99.90;10.70;100229;;;;573444;246;24072;-83
2022/09/09 03:58:35;;;;;;;5.03;3.43;;;11.30;99.90;10.70;100223;;;;576602;246;24101;-82
2022/09/09 04:01:03;;;;;;;7.97;3.63;;;11.30;99.90;10.70;100232;;;;574661;246;24152;-83
2022/09/09 04:03:35;;;;;;;9.23;3.50;;;11.30;99.90;10.70;100231;;;;582692;242;24136;-82
2022/09/09 04:06:02;;;;;;;5.40;3.13;;;11.20;99.90;10.70;100236;;;;582639;242;24162;-81
2022/09/09 04:08:27;;;;;;;4.60;3.37;;;11.20;99.90;10.60;100228;;;;573655;246;24100;-82
2022/09/09 04:10:58;;;;;;;4.93;3.33;;;11.20;99.90;10.60;100231;;;;576435;246;24090;-82
2022/09/09 04:13:27;;;;;;;22.03;3.83;;;11.20;99.90;10.60;100230;;;;574040;246;24113;-83
2022/09/09 04:15:55;;;;;;;9.47;3.63;;;11.20;99.90;10.60;100230;;;;573870;246;24120;-83
2022/09/09 04:18:25;;;;;;;6.37;3.73;;;11.20;99.90;10.70;100240;;;;582353;245;24147;-83
2022/09/09 04:20:51;;;;;;;16.13;4.40;;;11.20;99.90;10.60;100233;;;;573337;246;24135;-81
2022/09/09 04:23:20;;;;;;;4.77;3.17;;;11.20;99.90;10.60;100234;;;;573511;246;24116;-81
2022/09/09 04:25:50;;;;;;;7.10;3.33;;;11.20;99.90;10.60;100236;;;;573618;246;24131;-82
2022/09/09 04:28:15;;;;;;;4.63;3.60;;;11.20;99.90;10.60;100242;;;;573076;246;24085;-82
2022/09/09 04:30:43;;;;;;;9.87;3.40;;;11.20;99.90;10.60;100236;;;;582819;245;24117;-81
2022/09/09 04:33:11;;;;;;;8.27;3.40;;;11.10;99.90;10.60;100238;;;;573294;246;24171;-82
2022/09/09 04:35:39;;;;;;;7.97;3.73;;;11.10;99.90;10.60;100247;;;;575385;246;24102;-82
2022/09/09 04:38:09;;;;;;;7.27;3.43;;;11.10;99.90;10.60;100239;;;;575696;246;24177;-80
2022/09/09 04:40:42;;;;;;;6.37;3.70;;;11.10;99.90;10.60;100243;;;;575486;246;24103;-81
2022/09/09 04:43:05;;;;;;;0.30;0.30;;;11.10;99.90;10.60;100242;;;;572713;246;24171;-84
2022/09/09 04:45:33;;;;;;;0.00;0.00;;;11.10;99.90;10.60;100242;;;;573090;246;24076;-80
2022/09/09 04:48:04;;;;;;;0.00;0.00;;;11.10;99.90;10.60;100239;;;;572929;246;24250;-81
2022/09/09 04:50:29;;;;;;;0.00;0.00;;;11.10;99.90;10.60;100243;;;;572641;246;24196;-85
2022/09/09 04:52:57;;;;;;;0.00;0.00;;;11.10;99.90;10.60;100244;;;;573441;246;24104;-86
2022/09/09 04:55:25;;;;;;;0.00;0.00;;;11.10;99.90;10.60;100242;;;;573243;246;24099;-83
2022/09/09 04:57:53;;;;;;;0.00;0.00;;;11.10;99.90;10.60;100237;;;;573467;246;24088;-83
2022/09/09 05:00:21;;;;;;;0.00;0.00;;;11.10;99.90;10.60;100241;;;;582115;246;24124;-82
2022/09/09 05:02:49;;;;;;;0.00;0.00;;;11.10;99.90;10.60;100250;;;;573444;246;24139;-82
2022/09/09 05:05:18;;;;;;;0.00;0.00;;;11.10;99.90;10.60;100252;;;;573527;246;24084;-81
2022/09/09 05:07:47;;;;;;;0.00;0.00;;;11.10;99.90;10.60;100251;;;;573548;246;24096;-81
2022/09/09 05:10:14;;;;;;;0.00;0.00;;;11.10;99.90;10.50;100250;;;;574410;246;24091;-80
2022/09/09 05:12:41;;;;;;;0.00;0.00;;;11.10;99.90;10.50;100251;;;;574532;246;24156;-80
2022/09/09 05:15:10;;;;;;;0.00;0.00;;;11.00;99.90;10.50;100254;;;;574251;246;24119;-81
2022/09/09 05:17:37;;;;;;;0.00;0.00;;;11.00;99.90;10.50;100253;;;;574197;246;24076;-81
2022/09/09 05:20:05;;;;;;;0.00;0.00;;;11.00;99.90;10.50;100251;;;;573927;246;24077;-81
2022/09/09 05:22:33;;;;;;;0.00;0.00;;;11.10;99.90;10.50;100255;;;;573981;246;24082;-81
2022/09/09 05:25:01;;;;;;;0.00;0.00;;;11.00;99.90;10.50;100252;;;;573946;246;24131;-80
2022/09/09 05:27:34;;;;;;;0.00;0.00;;;11.00;99.90;10.50;100258;;;;573738;246;24117;-80
2022/09/09 05:29:59;;;;;;;0.00;0.00;;;11.00;99.90;10.50;100250;;;;573583;246;24097;-80
2022/09/09 05:32:27;;;;;;;0.00;0.00;;;11.00;99.90;10.50;100263;;;;573375;246;24138;-81
2022/09/09 05:34:55;;;;;;;0.00;0.00;;;11.00;99.90;10.50;100260;;;;573196;246;24103;-81
2022/09/09 05:37:23;;;;;;;0.00;0.00;;;11.00;99.90;10.50;100259;;;;573372;246;24180;-81
2022/09/09 05:39:50;;;;;;;0.00;0.00;;;11.00;99.90;10.50;100256;;;;573393;246;24094;-81
2022/09/09 05:42:18;;;;;;;0.10;0.10;;;11.00;99.90;10.40;100260;;;;573405;246;24079;-81
2022/09/09 05:44:46;;;;;;;0.00;0.00;;;11.00;99.90;10.40;100266;;;;573378;246;24093;-80
2022/09/09 05:47:15;;;;;;;0.00;0.00;;;10.90;99.90;10.30;100261;;;;573049;246;24087;-81
2022/09/09 05:49:42;;;;;;;0.00;0.00;;;10.90;99.90;10.30;100270;;;;573118;246;24108;-83
2022/09/09 05:52:10;;;;;;;0.00;0.00;;;10.80;99.90;10.20;100275;;;;575367;242;24141;-81
2022/09/09 05:54:38;;;;;;;0.00;0.00;;;10.80;99.90;10.10;100266;;;;573532;246;24149;-81
2022/09/09 05:57:06;;;;;;;0.00;0.00;;;10.70;99.90;10.10;100273;;;;573357;246;24091;-82
2022/09/09 05:59:38;;;;;;;0.00;0.00;;;10.70;99.90;10.10;100267;;;;573503;246;24079;-80
2022/09/09 06:02:03;;;;;;;0.00;0.00;;;10.60;99.90;10.10;100272;;;;581909;246;24126;-81
2022/09/09 06:04:32;;;;;;;0.00;0.00;;;10.60;99.90;10.00;100270;;;;573452;246;24078;-82
2022/09/09 06:06:59;;;;;;;0.00;0.00;;;10.60;99.90;10.00;100270;;;;573470;246;24083;-85
2022/09/09 06:09:27;;;;;;;0.00;0.00;;;10.60;99.90;10.10;100270;;;;573646;246;24117;-83
2022/09/09 06:11:55;;;;;;;0.00;0.00;;;10.60;99.90;10.10;100275;;;;573528;246;24084;-82
2022/09/09 06:14:23;;;;;;;0.00;0.00;;;10.60;99.90;10.10;100279;;;;573452;246;24112;-84
2022/09/09 06:16:54;;;;;;;0.00;0.00;;;10.60;99.90;10.00;100275;;;;573505;246;24094;-84
2022/09/09 06:19:19;;;;;;;0.00;0.00;;;10.60;99.90;10.00;100275;;;;573034;246;24106;-83
2022/09/09 06:21:51;;;;;;;0.00;0.00;;;10.60;99.90;10.00;100282;;;;574350;246;24084;-83
2022/09/09 06:24:17;;;;;;;0.00;0.00;;;10.50;99.90;10.00;100278;;;;583008;246;24081;-83
2022/09/09 06:26:45;;;;;;;0.00;0.00;;;10.50;99.90;10.00;100278;;;;574274;246;24068;-84
2022/09/09 06:29:12;;;;;;;0.00;0.00;;;10.50;99.90;10.00;100280;;;;574229;246;24081;-83
2022/09/09 06:31:41;;;;;;;0.00;0.00;;;10.50;99.90;10.00;100283;;;;573896;246;24109;-83
2022/09/09 06:34:08;;;;;;;0.00;0.00;;;10.50;99.90;10.00;100284;;;;573367;246;24105;-82
2022/09/09 06:36:36;;;;;;;0.00;0.00;;;10.60;99.90;10.00;100280;;;;573615;246;24104;-82
2022/09/09 06:39:07;;;;;;;0.00;0.00;;;10.50;99.90;10.00;100275;;;;582193;244;24121;-85
2022/09/09 06:41:36;;;;;;;0.00;0.00;;;10.60;99.90;10.00;100280;;;;581897;246;24095;-81
2022/09/09 06:44:01;;;;;;;0.00;0.00;;;10.50;99.90;10.00;100276;;;;572879;246;24160;-83
2022/09/09 06:46:30;;;;;;;0.00;0.00;;;10.50;99.90;9.90;100277;;;;573257;246;24230;-89
2022/09/09 06:48:57;;;;;;;0.00;0.00;;;10.50;99.90;9.90;100282;;;;573354;246;24099;-88
2022/09/09 06:51:25;;;;;;;0.00;0.00;;;10.50;99.90;9.90;100285;;;;579106;246;25147;-86
2022/09/09 06:53:52;;;;;;;0.00;0.00;;;10.40;99.90;9.80;100287;;;;573622;246;24091;-83
2022/09/09 06:56:21;;;;;;;0.00;0.00;;;10.40;99.90;9.70;100285;;;;573345;246;24182;-85
2022/09/09 06:58:48;;;;;;;0.00;0.00;;;10.30;99.90;9.70;100288;;;;581646;245;24114;-83
2022/09/09 07:01:16;;;;;;;0.00;0.00;;;10.30;99.90;9.70;100291;;;;577905;246;24089;-87
2022/09/09 07:03:44;;;;;;;0.00;0.00;;;10.30;99.90;9.80;100303;;;;573063;246;24154;-87
2022/09/09 07:06:17;;;;;;;0.00;0.00;;;10.30;99.90;9.80;100297;;;;581822;246;24094;-84
2022/09/09 07:08:46;;;;;;;0.00;0.00;;;10.40;99.90;9.80;100293;;;;573238;246;26235;-81
2022/09/09 07:11:11;;;;;;;0.00;0.00;;;10.40;99.90;9.80;100299;;;;573194;246;24131;-87
2022/09/09 07:13:39;;;;;;;0.00;0.00;;;10.30;99.90;9.80;100297;;;;577983;246;24087;-84
2022/09/09 07:16:12;;;;;;;0.00;0.00;;;10.30;99.90;9.80;100296;;;;577861;242;24081;-84
2022/09/09 07:18:41;;;;;;;0.00;0.00;;;10.30;99.90;9.80;100292;;;;573188;246;24100;-81
2022/09/09 07:21:08;;;;;;;0.00;0.00;;;10.40;99.90;9.80;100291;;;;578907;246;24090;-86
2022/09/09 07:23:36;;;;;;;0.00;0.00;;;10.40;99.90;9.80;100303;;;;582076;246;24105;-86
2022/09/09 07:26:04;;;;;;;0.00;0.00;;;10.40;99.90;9.80;100297;;;;578028;246;24119;-83
2022/09/09 07:28:32;;;;;;;0.00;0.00;;;10.30;99.90;9.80;100296;;;;581850;246;24082;-83
2022/09/09 07:31:02;;;;;;;0.00;0.00;;;10.40;99.90;9.80;100288;;;;578057;242;24091;-88
2022/09/09 07:33:31;;;;;;;0.00;0.00;;;10.40;99.90;9.80;100303;;;;583182;245;24101;-91
2022/09/09 07:35:56;;;;;;;0.00;0.00;;;10.30;99.90;9.80;100302;;;;574489;246;24114;-85
2022/09/09 07:38:24;;;;;;;0.00;0.00;;;10.30;99.90;9.80;100300;;;;582753;242;25155;-85
2022/09/09 07:40:52;;;;;;;0.00;0.00;;;10.30;99.90;9.80;100292;;;;579143;246;24142;-83
2022/09/09 07:43:20;;;;;;;0.00;0.00;;;10.30;99.90;9.90;100293;;;;578830;246;24094;-83
2022/09/09 07:45:49;;;;;;;4.50;2.40;;;10.40;99.90;9.90;100301;;;;573719;246;24178;-83
2022/09/09 07:48:17;;;;;;;4.23;2.23;;;10.50;99.90;9.90;100297;;;;578737;246;24085;-84
2022/09/09 07:50:45;;;;;;;2.97;2.77;;;10.50;99.90;9.90;100297;;;;578898;246;24288;-89
2022/09/09 07:53:13;;;;;;;2.70;2.17;;;10.50;99.90;9.90;100300;;;;578813;246;24084;-86
2022/09/09 07:55:41;;;;;;;3.17;2.70;;;10.50;99.90;9.90;100302;;;;579733;246;24093;-87
2022/09/09 07:58:08;;;;;;;2.87;2.60;;;10.50;99.90;10.00;100304;;;;578774;246;24106;-85
2022/09/09 08:00:36;;;;;;;5.77;3.73;;;10.50;99.90;10.10;100307;;;;574204;246;24096;-87
2022/09/09 08:03:04;;;;;;;4.40;3.30;;;10.60;99.90;10.10;100299;;;;574148;246;24143;-85
2022/09/09 08:05:32;;;;;;;2.60;2.40;;;10.70;99.90;10.10;100303;;;;573567;246;24122;-84
2022/09/09 08:08:00;;;;;;;10.57;2.97;;;10.70;99.90;10.10;100309;;;;573356;246;24108;-84
2022/09/09 08:10:28;;;;;;;4.67;3.33;;;10.70;99.90;10.00;100301;;;;573450;246;24150;-85
2022/09/09 08:12:56;;;;;;;3.80;2.90;;;10.60;99.90;10.00;100306;;;;573509;246;24109;-84
2022/09/09 08:15:25;;;;;;;2.50;2.30;;;10.60;99.90;10.00;100318;;;;573339;246;24137;-82
2022/09/09 08:17:53;;;;;;;8.63;3.20;;;10.60;99.90;10.00;100311;;;;573303;246;24167;-84
2022/09/09 08:20:22;;;;;;;8.23;3.40;;;10.60;99.90;9.90;100313;;;;573428;246;24142;-86
2022/09/09 08:22:49;;;;;;;16.03;6.40;;;10.60;99.90;9.90;100312;;;;573236;246;35334;-85
2022/09/09 08:25:19;;;;;;;11.03;4.40;;;10.50;99.90;10.00;100322;;;;573483;246;24146;-88
2022/09/09 08:27:44;;;;;;;11.60;3.70;;;10.50;99.90;9.90;100316;;;;573283;246;24096;-81
2022/09/09 08:30:12;;;;;;;7.03;3.63;;;10.50;99.90;10.00;100319;;;;573712;246;24072;-84
2022/09/09 08:32:40;;;;;;;6.00;3.73;;;10.50;99.90;10.00;100318;;;;573260;246;24198;-86
2022/09/09 08:35:08;;;;;;;16.40;6.37;;;10.50;99.90;10.10;100334;;;;568649;246;35420;-83
2022/09/09 08:37:36;;;;;;;9.33;4.10;;;10.60;99.90;10.00;100323;;;;573648;246;24114;-82
2022/09/09 08:40:08;;;;;;;12.73;4.30;;;10.60;99.90;10.00;100322;;;;573548;246;24076;-83
2022/09/09 08:42:47;;;;;;;3.10;2.80;;;10.60;99.90;10.00;100318;;;;581794;246;24096;-82
2022/09/09 08:45:30;;;;;;;6.03;2.90;;;10.60;99.90;10.00;100325;;;;582948;245;24178;-84
2022/09/09 08:48:16;;;;;;;6.77;3.27;;;10.50;99.90;10.00;100323;;;;574624;246;24136;-84
2022/09/09 08:50:48;;;;;;;8.47;3.67;;;10.50;99.90;10.00;100332;;;;572175;246;24149;-85
2022/09/09 08:53:21;;;;;;;8.03;4.07;;;10.50;99.90;10.00;100336;;;;574164;246;24480;-84
2022/09/09 08:55:52;;;;;;;7.10;3.40;;;10.50;99.90;10.00;100334;;;;582863;245;24177;-85
2022/09/09 08:58:22;;;;;;;4.07;3.47;;;10.50;99.90;10.10;100336;;;;583210;245;24118;-85
2022/09/09 09:01:09;;;;;;;5.87;3.77;;;10.70;99.90;10.20;100332;;;;582366;246;24100;-82
2022/09/09 09:04:01;;;;;;;3.87;3.57;;;10.70;99.90;10.30;100337;;;;579001;246;24130;-82
2022/09/09 09:06:39;;;;;;;6.13;3.20;;;10.80;99.90;10.30;100330;;;;573698;246;24083;-82
2022/09/09 09:09:26;;;;;;;5.13;3.50;;;10.80;99.90;10.30;100337;;;;573666;246;24190;-83
2022/09/09 09:11:56;;;;;;;5.00;3.30;;;10.80;99.90;10.30;100332;;;;573942;246;24074;-85
2022/09/09 09:14:24;;;;;;;4.10;2.77;;;10.80;99.90;10.30;100335;;;;582109;246;24096;-85
2022/09/09 09:16:52;;;;;;;5.97;3.90;;;10.80;99.90;10.30;100335;;;;573348;246;24101;-86
2022/09/09 09:19:22;;;;;;;7.07;4.13;;;10.80;99.90;10.30;100325;;;;582122;244;24115;-86
2022/09/09 09:21:50;;;;;;;8.70;5.73;;;10.80;99.90;10.30;100323;;;;572960;246;24148;-85
2022/09/09 09:24:21;;;;;;;13.17;3.43;;;10.80;99.90;10.40;100330;;;;582605;245;24103;-83
2022/09/09 09:26:52;;;;;;;4.37;3.33;;;10.90;99.90;10.40;100330;;;;579508;245;24112;-84
2022/09/09 09:29:17;;;;;;;5.23;4.23;;;10.90;99.90;10.50;100335;;;;582047;246;24157;-86
2022/09/09 09:31:57;;;;;;;10.10;4.13;;;11.00;99.90;10.50;100333;;;;573274;246;24106;-83
2022/09/09 09:34:23;;;;;;;3.87;3.53;;;11.00;99.90;10.50;100326;;;;582844;242;24154;-83
2022/09/09 09:36:54;;;;;;;6.03;3.23;;;11.00;99.90;10.40;100336;;;;573664;246;24097;-82
2022/09/09 09:39:28;;;;;;;4.27;3.53;;;10.90;99.90;10.40;100336;;;;582504;246;24100;-84
2022/09/09 09:41:57;;;;;;;6.00;4.40;;;10.90;99.90;10.40;100340;;;;582744;246;25148;-82
2022/09/09 09:44:30;;;;;;;6.63;3.20;;;10.90;99.90;10.40;100347;;;;573549;246;24102;-83
2022/09/09 09:47:14;;;;;;;6.93;3.80;;;10.90;99.90;10.40;100348;;;;573625;246;24115;-81
2022/09/09 09:49:53;;;;;;;4.50;4.10;;;10.90;99.90;10.30;100340;;;;573383;246;24092;-82
2022/09/09 09:52:25;;;;;;;4.40;3.80;;;10.90;99.90;10.40;100349;;;;573413;246;24153;-81
2022/09/09 09:54:57;;;;;;;10.13;4.13;;;10.90;99.90;10.50;100356;;;;573253;246;24104;-80
2022/09/09 09:57:21;;;;;;;6.77;4.77;;;11.00;99.90;10.50;100340;;;;576389;246;24089;-81
2022/09/09 09:59:53;;;;;;;6.93;4.63;;;11.00;99.90;10.50;100340;;;;582654;242;24128;-82
2022/09/09 10:02:17;;;;;;;9.57;4.43;;;11.10;99.90;10.50;100339;;;;573720;246;24107;-84
2022/09/09 10:04:48;;;;;;;6.03;5.30;;;11.10;99.90;10.60;100342;;;;581925;246;24153;-83
2022/09/09 10:07:12;;;;;;;5.17;4.57;;;11.10;99.90;10.70;100333;;;;573359;246;24099;-82
2022/09/09 10:09:40;;;;;;;8.00;4.90;;;11.20;99.90;10.80;100334;;;;572796;246;24109;-82
2022/09/09 10:12:48;;;;;;;6.20;4.87;;;11.30;99.90;10.80;100336;;;;573604;246;24113;-82
2022/09/09 10:15:27;;;;;;;4.70;4.30;;;11.40;99.90;10.90;100325;;;;573339;246;24104;-81
2022/09/09 10:17:57;;;;;;;5.83;5.00;;;11.50;99.90;11.00;100335;;;;572941;246;25218;-81
2022/09/09 10:21:11;;;;;;;6.93;5.03;;;11.50;99.90;11.20;100333;;;;580647;244;24097;-81
2022/09/09 10:23:58;;;;;;;17.17;5.53;;;11.70;99.90;11.20;100334;;;;573664;246;24089;-81
2022/09/09 10:26:57;;;;;;;8.53;4.60;;;11.80;99.90;11.20;100341;;;;573638;246;24107;-80
2022/09/09 10:29:57;;;;;;;7.63;6.13;;;11.80;99.90;11.20;100338;;;;579001;246;24144;-79
2022/09/09 10:32:49;;;;;;;10.37;5.97;;;11.80;99.90;11.30;100340;;;;572987;245;24108;-81
2022/09/09 10:35:39;;;;;;;12.10;5.20;;;11.80;99.90;11.30;100345;;;;572723;246;24095;-81
2022/09/09 10:38:25;;;;;;;7.40;5.53;;;11.90;99.90;11.20;100354;;;;572410;246;24209;-81
2022/09/09 10:40:56;;;;;;;4.87;3.40;;;11.80;99.90;11.20;100350;;;;582245;242;24090;-82
2022/09/09 10:44:04;;;;;;;8.43;5.90;;;11.80;99.90;11.20;100344;;;;572707;246;24198;-83
2022/09/09 10:46:49;;;;;;;8.97;6.10;;;11.80;99.90;11.40;100345;;;;572726;246;24242;-82
2022/09/09 10:49:41;;;;;;;10.43;6.13;;;11.90;99.90;11.40;100338;;;;572544;246;24084;-82
2022/09/09 10:52:15;;;;;;;9.57;5.43;;;12.00;99.90;11.50;100345;;;;572059;246;24127;-81
2022/09/09 10:55:01;;;;;;;9.97;6.10;;;12.10;99.90;11.60;100338;;;;581533;245;24137;-81
2022/09/09 10:57:52;;;;;;;7.47;5.73;;;12.10;99.90;11.70;100336;;;;583141;242;24153;-81
2022/09/09 11:00:20;;;;;;;6.47;5.87;;;12.20;99.90;11.80;100341;;;;572466;246;24250;-81
2022/09/09 11:02:57;;;;;;;6.97;5.77;;;12.40;99.90;11.80;100333;;;;572865;246;24146;-81
2022/09/09 11:05:28;;;;;;;9.20;6.43;;;12.40;99.90;11.80;100325;;;;572801;246;24157;-81
2022/09/09 11:08:02;;;;;;;10.80;7.03;;;12.40;99.90;12.10;100335;;;;573535;246;24208;-82
2022/09/09 11:10:39;;;;;;;8.80;6.70;;;12.60;99.90;12.10;100340;;;;582186;246;24122;-82
2022/09/09 11:13:06;;;;;;;6.30;5.70;;;12.70;99.90;12.20;100338;;;;582644;246;25190;-83
2022/09/09 11:15:41;;;;;;;7.50;6.63;;;12.80;99.90;12.30;100345;;;;581806;246;24099;-81
2022/09/09 11:18:09;;;;;;;8.30;6.03;;;12.90;99.90;12.40;100348;;;;581025;246;25175;-83
2022/09/09 11:20:36;;;;;;;7.70;6.63;;;13.00;99.90;12.40;100346;;;;581967;242;24151;-81
2022/09/09 11:23:12;;;;;;;8.07;6.50;;;12.90;99.90;12.30;100358;;;;573325;246;24115;-82
2022/09/09 11:25:41;;;;;;;10.70;6.17;;;12.80;99.90;12.20;100349;;;;573129;246;24107;-79
2022/09/09 11:28:28;;;;;;;9.50;6.40;;;12.80;99.90;12.20;100350;;;;581484;242;24163;-81
2022/09/09 11:31:13;;;;;;;10.00;6.00;;;12.80;99.90;12.20;100348;;;;575583;242;24102;-82